createdAt,value
2022-09-17T00:02:03.223Z,7.89
2022-09-17T00:07:05.293Z,7.85
2022-09-17T00:12:07.237Z,7.75
2022-09-17T00:17:08.977Z,7.65
2022-09-17T00:22:30.445Z,7.56
2022-09-17T00:27:34.219Z,7.45
2022-09-17T00:32:35.968Z,7.41
2022-09-17T00:37:37.852Z,7.31
2022-09-17T00:42:39.616Z,7.22
2022-09-17T00:47:58.689Z,7.24
2022-09-17T00:53:20.763Z,7.27
2022-09-17T00:58:23.475Z,7.19
2022-09-17T01:03:37.631Z,7.28
2022-09-17T01:09:08.470Z,7.26
2022-09-17T01:14:57.336Z,7.15
2022-09-17T01:20:23.092Z,7.12
2022-09-17T01:25:38.293Z,7.10
2022-09-17T01:30:51.979Z,6.99
2022-09-17T01:36:17.878Z,6.92
2022-09-17T01:41:38.633Z,6.92
2022-09-17T01:46:46.650Z,6.91
2022-09-17T01:51:53.150Z,6.89
2022-09-17T01:57:02.112Z,6.94
2022-09-17T02:02:32.805Z,6.99
2022-09-17T02:07:42.391Z,6.97
2022-09-17T02:12:50.006Z,7.00
2022-09-17T02:17:58.918Z,7.04
2022-09-17T02:23:08.651Z,7.07
2022-09-17T02:28:41.587Z,7.12
2022-09-17T02:33:55.935Z,7.18
2022-09-17T02:39:01.827Z,7.24
2022-09-17T02:44:18.630Z,7.23
2022-09-17T02:50:00.346Z,7.23
2022-09-17T02:55:43.205Z,7.22
2022-09-17T03:00:46.506Z,7.10
2022-09-17T03:05:49.520Z,7.00
2022-09-17T03:10:51.395Z,6.90
2022-09-17T03:16:06.585Z,6.87
2022-09-17T03:21:12.665Z,6.84
2022-09-17T03:26:14.596Z,6.74
2022-09-17T03:31:16.469Z,6.60
2022-09-17T03:36:19.574Z,6.48
2022-09-17T03:41:21.603Z,6.50
2022-09-17T03:46:23.386Z,6.60
2022-09-17T03:51:25.560Z,6.69
2022-09-17T03:56:27.333Z,6.70
2022-09-17T04:01:29.377Z,6.64
2022-09-17T04:06:31.583Z,6.53
2022-09-17T04:11:33.565Z,6.40
2022-09-17T04:16:35.613Z,6.40
2022-09-17T04:21:37.461Z,6.47
2022-09-17T04:26:39.272Z,6.51
2022-09-17T04:31:41.166Z,6.50
2022-09-17T04:36:42.918Z,6.48
2022-09-17T04:41:44.641Z,6.47
2022-09-17T04:46:46.477Z,6.49
2022-09-17T04:51:48.381Z,6.55
2022-09-17T04:56:50.528Z,6.64
2022-09-17T05:01:52.350Z,6.78
2022-09-17T05:06:54.170Z,7.06
2022-09-17T05:12:12.048Z,7.37
2022-09-17T05:17:13.672Z,7.75
2022-09-17T05:22:21.432Z,8.07
2022-09-17T05:27:23.510Z,8.31
2022-09-17T05:32:25.536Z,8.49
2022-09-17T05:37:27.237Z,8.68
2022-09-17T05:42:29.475Z,8.88
2022-09-17T05:47:31.224Z,9.10
2022-09-17T05:52:33.247Z,9.33
2022-09-17T05:57:35.023Z,9.57
2022-09-17T06:02:37.231Z,9.73
2022-09-17T06:07:39.254Z,9.89
2022-09-17T06:12:40.914Z,10.02
2022-09-17T06:17:43.551Z,10.16
2022-09-17T06:22:45.593Z,10.25
2022-09-17T06:27:47.417Z,10.31
2022-09-17T06:32:49.878Z,10.44
2022-09-17T06:38:11.448Z,10.59
2022-09-17T06:43:21.829Z,10.77
2022-09-17T06:48:24.715Z,10.96
2022-09-17T06:53:26.418Z,11.13
2022-09-17T06:58:30.025Z,11.18
2022-09-17T07:03:35.889Z,11.22
2022-09-17T07:08:38.476Z,11.38
2022-09-17T07:13:40.352Z,11.77
2022-09-17T07:18:42.235Z,12.21
2022-09-17T07:23:44.781Z,12.64
2022-09-17T07:29:06.429Z,13.12
2022-09-17T07:34:22.146Z,13.33
2022-09-17T07:39:23.842Z,13.37
2022-09-17T07:44:30.266Z,13.29
2022-09-17T07:49:32.304Z,13.41
2022-09-17T07:54:34.573Z,13.50
2022-09-17T07:59:36.667Z,13.72
2022-09-17T08:04:38.552Z,14.17
2022-09-17T08:09:59.272Z,14.53
2022-09-17T08:15:01.612Z,14.83
2022-09-17T08:20:03.617Z,15.07
2022-09-17T08:25:06.750Z,15.12
2022-09-17T08:30:09.339Z,14.66
2022-09-17T08:35:11.961Z,14.33
2022-09-17T08:40:21.321Z,14.44
2022-09-17T08:45:34.888Z,14.53
2022-09-17T08:50:42.067Z,14.84
2022-09-17T08:56:00.912Z,15.05
2022-09-17T09:01:23.961Z,15.14
2022-09-17T09:06:32.926Z,15.38
2022-09-17T09:11:41.569Z,15.59
2022-09-17T09:16:56.722Z,16.17
2022-09-17T09:22:26.120Z,16.22
2022-09-17T09:27:29.455Z,15.50
2022-09-17T09:32:40.383Z,14.92
2022-09-17T09:38:14.100Z,14.91
2022-09-17T09:44:03.683Z,14.83
2022-09-17T09:49:50.227Z,14.53
2022-09-17T09:55:01.080Z,14.46
2022-09-17T10:00:38.861Z,14.71
2022-09-17T10:05:59.217Z,15.16
2022-09-17T10:11:16.968Z,15.45
2022-09-17T10:16:21.744Z,15.44
2022-09-17T10:21:32.565Z,15.23
2022-09-17T10:26:37.110Z,15.12
2022-09-17T10:31:55.021Z,14.72
2022-09-17T10:36:58.564Z,14.43
2022-09-17T10:42:22.120Z,14.17
2022-09-17T10:47:30.533Z,13.90
2022-09-17T10:52:34.475Z,13.77
2022-09-17T10:58:10.344Z,13.87
2022-09-17T11:03:43.770Z,14.12
2022-09-17T11:09:16.231Z,14.55
2022-09-17T11:14:49.530Z,14.98
2022-09-17T11:20:39.965Z,15.11
2022-09-17T11:25:57.150Z,14.78
2022-09-17T11:31:39.844Z,14.63
2022-09-17T11:37:00.379Z,14.71
2022-09-17T11:42:07.857Z,14.65
2022-09-17T11:47:17.400Z,14.44
2022-09-17T11:52:25.788Z,14.37
2022-09-17T11:57:35.341Z,14.48
2022-09-17T12:03:06.876Z,14.81
2022-09-17T12:08:24.074Z,15.03
2022-09-17T12:13:51.106Z,14.99
2022-09-17T12:19:01.103Z,14.97
2022-09-17T12:24:28.672Z,15.04
2022-09-17T12:29:45.784Z,15.43
2022-09-17T12:35:15.073Z,15.55
2022-09-17T12:40:36.123Z,15.56
2022-09-17T12:45:50.442Z,15.79
2022-09-17T12:51:27.800Z,15.92
2022-09-17T12:56:51.111Z,15.88
2022-09-17T13:02:05.326Z,15.84
2022-09-17T13:07:26.234Z,16.08
2022-09-17T13:12:33.710Z,16.07
2022-09-17T13:18:31.396Z,15.90
2022-09-17T13:23:43.913Z,15.70
2022-09-17T13:28:52.514Z,15.84
2022-09-17T13:33:57.495Z,15.94
2022-09-17T13:39:01.712Z,16.01
2022-09-17T13:44:06.178Z,16.36
2022-09-17T13:49:16.939Z,16.61
2022-09-17T13:54:21.311Z,16.55
2022-09-17T13:59:27.930Z,16.48
2022-09-17T14:04:41.845Z,16.15
2022-09-17T14:09:50.339Z,15.71
2022-09-17T14:14:52.743Z,15.61
2022-09-17T14:19:55.521Z,15.51
2022-09-17T14:24:58.423Z,15.32
2022-09-17T14:30:12.934Z,15.05
2022-09-17T14:35:20.611Z,14.58
2022-09-17T14:40:59.423Z,14.16
2022-09-17T14:46:07.063Z,13.98
2022-09-17T14:51:42.426Z,13.88
2022-09-17T14:57:09.798Z,13.82
2022-09-17T15:02:33.282Z,13.83
2022-09-17T15:07:35.373Z,13.90
2022-09-17T15:12:38.967Z,14.00
2022-09-17T15:17:42.382Z,14.31
2022-09-17T15:22:50.099Z,14.66
2022-09-17T15:27:57.114Z,14.70
2022-09-17T15:33:00.167Z,14.56
2022-09-17T15:38:23.676Z,14.31
2022-09-17T15:43:31.621Z,14.09
2022-09-17T15:48:37.108Z,13.97
2022-09-17T15:53:39.019Z,13.76
2022-09-17T15:58:40.757Z,13.55
2022-09-17T16:03:45.651Z,13.31
2022-09-17T16:08:56.086Z,13.23
2022-09-17T16:14:00.336Z,13.12
2022-09-17T16:19:03.678Z,13.05
2022-09-17T16:24:25.396Z,12.95
2022-09-17T16:29:31.308Z,12.84
2022-09-17T16:34:33.429Z,12.75
2022-09-17T16:39:35.278Z,12.62
2022-09-17T16:44:37.224Z,12.52
2022-09-17T16:49:39.062Z,12.48
2022-09-17T16:54:40.961Z,12.44
2022-09-17T16:59:42.658Z,12.42
2022-09-17T17:04:44.398Z,12.38
2022-09-17T17:09:46.428Z,12.28
2022-09-17T17:14:50.165Z,12.25
2022-09-17T17:19:53.076Z,12.18
2022-09-17T17:24:55.285Z,12.12
2022-09-17T17:29:57.008Z,12.06
2022-09-17T17:34:58.848Z,12.00
2022-09-17T17:40:01.901Z,11.94
2022-09-17T17:45:05.985Z,11.91
2022-09-17T17:50:16.059Z,11.74
2022-09-17T17:55:17.957Z,11.38
2022-09-17T18:00:40.415Z,11.11
2022-09-17T18:05:58.991Z,10.89
2022-09-17T18:11:04.187Z,10.79
2022-09-17T18:16:12.110Z,10.74
2022-09-17T18:21:21.972Z,10.72
2022-09-17T18:26:28.011Z,10.69
2022-09-17T18:31:32.000Z,10.70
2022-09-17T18:36:36.409Z,10.68
2022-09-17T18:41:40.744Z,10.66
2022-09-17T18:46:43.088Z,10.55
2022-09-17T18:51:44.954Z,10.42
2022-09-17T18:56:46.733Z,10.35
2022-09-17T19:01:49.497Z,10.31
2022-09-17T19:07:11.533Z,10.25
2022-09-17T19:12:23.856Z,10.17
2022-09-17T19:17:26.294Z,10.14
2022-09-17T19:22:42.430Z,10.14
2022-09-17T19:27:54.155Z,10.13
2022-09-17T19:32:56.025Z,10.10
2022-09-17T19:37:58.945Z,10.10
2022-09-17T19:43:03.381Z,10.06
2022-09-17T19:48:05.117Z,10.00
2022-09-17T19:53:06.844Z,9.95
2022-09-17T19:58:08.633Z,9.89
2022-09-17T20:03:10.933Z,9.82
2022-09-17T20:08:12.698Z,9.76
2022-09-17T20:13:17.341Z,9.73
2022-09-17T20:18:23.289Z,9.68
2022-09-17T20:23:31.078Z,9.63
2022-09-17T20:28:37.588Z,9.61
2022-09-17T20:33:40.110Z,9.53
2022-09-17T20:39:11.491Z,9.47
2022-09-17T20:44:06.630Z,9.39
2022-09-17T20:49:08.634Z,9.33
2022-09-17T20:54:10.672Z,9.29
2022-09-17T20:59:21.384Z,9.26
2022-09-17T21:04:24.217Z,9.24
2022-09-17T21:09:26.076Z,9.23
2022-09-17T21:14:27.965Z,9.20
2022-09-17T21:19:29.856Z,9.21
2022-09-17T21:24:31.632Z,9.21
2022-09-17T21:29:33.552Z,9.20
2022-09-17T21:34:35.277Z,9.20
2022-09-17T21:39:37.334Z,9.18
2022-09-17T21:44:39.482Z,9.22
2022-09-17T21:50:01.390Z,9.21
2022-09-17T21:55:16.718Z,9.23
2022-09-17T22:00:23.189Z,9.25
2022-09-17T22:05:25.419Z,9.26
2022-09-17T22:10:28.520Z,9.26
2022-09-17T22:15:30.407Z,9.27
2022-09-17T22:20:44.927Z,9.26
2022-09-17T22:25:49.295Z,9.26
2022-09-17T22:30:54.112Z,9.28
2022-09-17T22:36:08.521Z,9.27
2022-09-17T22:41:16.018Z,9.28
2022-09-17T22:46:21.365Z,9.26
2022-09-17T22:51:24.301Z,9.25
2022-09-17T22:56:28.134Z,9.27
2022-09-17T23:01:33.870Z,9.29
2022-09-17T23:06:38.340Z,9.28
2022-09-17T23:11:48.883Z,9.30
2022-09-17T23:17:14.369Z,9.28
2022-09-17T23:22:23.296Z,9.24
2022-09-17T23:27:25.132Z,9.23
2022-09-17T23:32:27.054Z,9.20
2022-09-17T23:37:28.791Z,9.16
2022-09-17T23:42:35.802Z,9.12
2022-09-17T23:47:37.469Z,9.10
2022-09-17T23:52:39.357Z,9.11
2022-09-17T23:57:41.211Z,9.10
